sensor_id;sensor_type;location;lat;lon;timestamp;P1;durP1;ratioP1;P2;durP2;ratioP2
63534;SDS011;55128;50.230;18.944;2023-03-01T00:02:22;93.28;;;44.20;;
63534;SDS011;55128;50.230;18.944;2023-03-01T00:07:22;79.95;;;40.70;;
63534;SDS011;55128;50.230;18.944;2023-03-01T00:12:23;98.70;;;45.25;;
63534;SDS011;55128;50.230;18.944;2023-03-01T00:17:23;89.67;;;45.63;;
63534;SDS011;55128;50.230;18.944;2023-03-01T00:22:24;118.28;;;50.83;;
63534;SDS011;55128;50.230;18.944;2023-03-01T00:27:26;89.15;;;41.67;;
63534;SDS011;55128;50.230;18.944;2023-03-01T00:32:26;116.60;;;46.28;;
63534;SDS011;55128;50.230;18.944;2023-03-01T00:37:26;118.43;;;50.30;;
63534;SDS011;55128;50.230;18.944;2023-03-01T00:42:27;113.95;;;48.15;;
63534;SDS011;55128;50.230;18.944;2023-03-01T00:47:28;114.53;;;50.43;;
63534;SDS011;55128;50.230;18.944;2023-03-01T00:52:29;159.32;;;68.13;;
63534;SDS011;55128;50.230;18.944;2023-03-01T00:57:29;196.25;;;72.28;;
63534;SDS011;55128;50.230;18.944;2023-03-01T01:02:31;232.10;;;78.00;;
63534;SDS011;55128;50.230;18.944;2023-03-01T01:07:32;664.75;;;212.98;;
63534;SDS011;55128;50.230;18.944;2023-03-01T01:12:33;439.95;;;144.80;;
63534;SDS011;55128;50.230;18.944;2023-03-01T01:17:33;279.20;;;92.78;;
63534;SDS011;55128;50.230;18.944;2023-03-01T01:22:33;247.97;;;81.87;;
63534;SDS011;55128;50.230;18.944;2023-03-01T01:27:34;258.00;;;83.72;;
63534;SDS011;55128;50.230;18.944;2023-03-01T01:32:34;267.92;;;92.38;;
63534;SDS011;55128;50.230;18.944;2023-03-01T01:37:34;246.30;;;87.13;;
63534;SDS011;55128;50.230;18.944;2023-03-01T01:42:35;234.98;;;85.32;;
63534;SDS011;55128;50.230;18.944;2023-03-01T01:47:35;216.73;;;78.20;;
63534;SDS011;55128;50.230;18.944;2023-03-01T01:52:36;195.70;;;75.00;;
63534;SDS011;55128;50.230;18.944;2023-03-01T01:57:56;158.45;;;65.22;;
63534;SDS011;55128;50.230;18.944;2023-03-01T02:03:22;227.45;;;84.65;;
63534;SDS011;55128;50.230;18.944;2023-03-01T02:08:29;226.43;;;83.78;;
63534;SDS011;55128;50.230;18.944;2023-03-01T02:13:32;211.90;;;80.25;;
63534;SDS011;55128;50.230;18.944;2023-03-01T02:18:33;190.02;;;75.00;;
63534;SDS011;55128;50.230;18.944;2023-03-01T02:23:34;170.68;;;65.35;;
63534;SDS011;55128;50.230;18.944;2023-03-01T02:28:36;178.57;;;72.65;;
63534;SDS011;55128;50.230;18.944;2023-03-01T02:33:38;200.30;;;78.13;;
63534;SDS011;55128;50.230;18.944;2023-03-01T02:38:40;147.93;;;61.15;;
63534;SDS011;55128;50.230;18.944;2023-03-01T02:43:41;121.40;;;53.72;;
63534;SDS011;55128;50.230;18.944;2023-03-01T02:48:47;148.18;;;63.85;;
63534;SDS011;55128;50.230;18.944;2023-03-01T02:58:56;152.68;;;68.47;;
63534;SDS011;55128;50.230;18.944;2023-03-01T03:04:00;167.27;;;73.00;;
63534;SDS011;55128;50.230;18.944;2023-03-01T03:09:01;152.00;;;64.07;;
63534;SDS011;55128;50.230;18.944;2023-03-01T03:14:01;162.10;;;72.03;;
63534;SDS011;55128;50.230;18.944;2023-03-01T03:19:02;166.00;;;70.40;;
63534;SDS011;55128;50.230;18.944;2023-03-01T03:24:04;155.07;;;68.00;;
63534;SDS011;55128;50.230;18.944;2023-03-01T03:29:05;157.93;;;71.32;;
63534;SDS011;55128;50.230;18.944;2023-03-01T03:34:05;161.75;;;71.50;;
63534;SDS011;55128;50.230;18.944;2023-03-01T03:39:06;161.40;;;69.20;;
63534;SDS011;55128;50.230;18.944;2023-03-01T03:44:06;155.20;;;65.63;;
63534;SDS011;55128;50.230;18.944;2023-03-01T03:49:06;136.82;;;61.00;;
63534;SDS011;55128;50.230;18.944;2023-03-01T03:54:07;141.10;;;62.05;;
63534;SDS011;55128;50.230;18.944;2023-03-01T03:59:07;138.70;;;61.63;;
63534;SDS011;55128;50.230;18.944;2023-03-01T04:04:11;146.55;;;63.47;;
63534;SDS011;55128;50.230;18.944;2023-03-01T04:09:11;143.70;;;65.13;;
63534;SDS011;55128;50.230;18.944;2023-03-01T04:14:12;150.27;;;66.63;;
63534;SDS011;55128;50.230;18.944;2023-03-01T04:19:12;144.37;;;64.03;;
63534;SDS011;55128;50.230;18.944;2023-03-01T04:24:12;145.30;;;63.90;;
63534;SDS011;55128;50.230;18.944;2023-03-01T04:29:13;142.30;;;64.45;;
63534;SDS011;55128;50.230;18.944;2023-03-01T04:34:13;150.60;;;65.97;;
63534;SDS011;55128;50.230;18.944;2023-03-01T04:39:14;144.27;;;61.92;;
63534;SDS011;55128;50.230;18.944;2023-03-01T04:44:14;158.63;;;69.87;;
63534;SDS011;55128;50.230;18.944;2023-03-01T04:49:14;157.05;;;67.90;;
63534;SDS011;55128;50.230;18.944;2023-03-01T04:54:15;149.60;;;66.53;;
63534;SDS011;55128;50.230;18.944;2023-03-01T04:59:16;157.63;;;68.18;;
63534;SDS011;55128;50.230;18.944;2023-03-01T05:04:16;161.83;;;71.57;;
63534;SDS011;55128;50.230;18.944;2023-03-01T05:09:17;149.02;;;63.60;;
63534;SDS011;55128;50.230;18.944;2023-03-01T05:14:17;145.30;;;60.00;;
63534;SDS011;55128;50.230;18.944;2023-03-01T05:19:17;130.18;;;59.80;;
63534;SDS011;55128;50.230;18.944;2023-03-01T05:24:22;125.78;;;55.13;;
63534;SDS011;55128;50.230;18.944;2023-03-01T05:29:23;129.07;;;57.40;;
63534;SDS011;55128;50.230;18.944;2023-03-01T05:34:25;141.43;;;60.10;;
63534;SDS011;55128;50.230;18.944;2023-03-01T05:39:30;154.57;;;67.32;;
63534;SDS011;55128;50.230;18.944;2023-03-01T05:44:31;140.93;;;67.60;;
63534;SDS011;55128;50.230;18.944;2023-03-01T05:49:31;140.48;;;65.18;;
63534;SDS011;55128;50.230;18.944;2023-03-01T05:54:32;147.93;;;67.10;;
63534;SDS011;55128;50.230;18.944;2023-03-01T05:59:33;142.25;;;61.47;;
63534;SDS011;55128;50.230;18.944;2023-03-01T06:04:33;140.00;;;64.72;;
63534;SDS011;55128;50.230;18.944;2023-03-01T06:09:33;131.82;;;57.25;;
63534;SDS011;55128;50.230;18.944;2023-03-01T06:14:34;125.00;;;61.47;;
63534;SDS011;55128;50.230;18.944;2023-03-01T06:19:34;125.38;;;61.72;;
63534;SDS011;55128;50.230;18.944;2023-03-01T06:24:34;129.67;;;65.13;;
63534;SDS011;55128;50.230;18.944;2023-03-01T06:29:35;122.72;;;62.90;;
63534;SDS011;55128;50.230;18.944;2023-03-01T06:34:35;132.75;;;68.28;;
63534;SDS011;55128;50.230;18.944;2023-03-01T06:39:36;126.90;;;68.80;;
63534;SDS011;55128;50.230;18.944;2023-03-01T06:44:36;121.18;;;63.10;;
63534;SDS011;55128;50.230;18.944;2023-03-01T06:49:37;120.78;;;64.32;;
63534;SDS011;55128;50.230;18.944;2023-03-01T06:54:37;118.13;;;67.05;;
63534;SDS011;55128;50.230;18.944;2023-03-01T06:59:37;124.47;;;70.88;;
63534;SDS011;55128;50.230;18.944;2023-03-01T07:04:38;134.83;;;74.20;;
63534;SDS011;55128;50.230;18.944;2023-03-01T07:09:38;115.38;;;70.35;;
63534;SDS011;55128;50.230;18.944;2023-03-01T07:14:39;122.60;;;75.97;;
63534;SDS011;55128;50.230;18.944;2023-03-01T07:19:39;108.45;;;71.15;;
63534;SDS011;55128;50.230;18.944;2023-03-01T07:24:40;88.45;;;57.72;;
63534;SDS011;55128;50.230;18.944;2023-03-01T07:29:41;93.65;;;59.83;;
63534;SDS011;55128;50.230;18.944;2023-03-01T07:34:41;81.20;;;51.63;;
63534;SDS011;55128;50.230;18.944;2023-03-01T07:39:42;73.70;;;49.90;;
63534;SDS011;55128;50.230;18.944;2023-03-01T07:44:42;70.70;;;48.28;;
63534;SDS011;55128;50.230;18.944;2023-03-01T07:49:42;71.67;;;49.03;;
63534;SDS011;55128;50.230;18.944;2023-03-01T07:54:43;64.50;;;46.10;;
63534;SDS011;55128;50.230;18.944;2023-03-01T07:59:46;62.63;;;44.75;;
63534;SDS011;55128;50.230;18.944;2023-03-01T08:04:46;60.93;;;44.90;;
63534;SDS011;55128;50.230;18.944;2023-03-01T08:09:47;65.55;;;45.45;;
63534;SDS011;55128;50.230;18.944;2023-03-01T08:14:47;65.17;;;45.67;;
63534;SDS011;55128;50.230;18.944;2023-03-01T08:19:48;57.17;;;43.93;;
63534;SDS011;55128;50.230;18.944;2023-03-01T08:24:48;53.22;;;38.67;;
63534;SDS011;55128;50.230;18.944;2023-03-01T08:29:48;52.20;;;36.90;;
63534;SDS011;55128;50.230;18.944;2023-03-01T08:34:49;55.73;;;37.73;;
63534;SDS011;55128;50.230;18.944;2023-03-01T08:39:49;44.33;;;28.75;;
63534;SDS011;55128;50.230;18.944;2023-03-01T08:44:49;38.90;;;26.60;;
63534;SDS011;55128;50.230;18.944;2023-03-01T08:49:50;33.97;;;24.30;;
63534;SDS011;55128;50.230;18.944;2023-03-01T08:54:50;33.40;;;24.38;;
63534;SDS011;55128;50.230;18.944;2023-03-01T08:59:51;33.23;;;19.83;;
63534;SDS011;55128;50.230;18.944;2023-03-01T09:04:51;34.03;;;21.57;;
63534;SDS011;55128;50.230;18.944;2023-03-01T09:09:51;37.50;;;22.52;;
63534;SDS011;55128;50.230;18.944;2023-03-01T09:14:53;33.97;;;21.50;;
63534;SDS011;55128;50.230;18.944;2023-03-01T09:19:53;24.88;;;19.48;;
63534;SDS011;55128;50.230;18.944;2023-03-01T09:24:53;31.73;;;23.50;;
63534;SDS011;55128;50.230;18.944;2023-03-01T09:29:54;29.10;;;21.23;;
63534;SDS011;55128;50.230;18.944;2023-03-01T09:34:56;35.13;;;21.23;;
63534;SDS011;55128;50.230;18.944;2023-03-01T09:40:08;29.92;;;21.58;;
63534;SDS011;55128;50.230;18.944;2023-03-01T09:45:34;33.63;;;21.95;;
63534;SDS011;55128;50.230;18.944;2023-03-01T09:50:38;36.13;;;27.58;;
63534;SDS011;55128;50.230;18.944;2023-03-01T09:55:52;36.15;;;23.52;;
63534;SDS011;55128;50.230;18.944;2023-03-01T10:06:25;35.53;;;24.63;;
63534;SDS011;55128;50.230;18.944;2023-03-01T10:11:37;32.00;;;23.98;;
63534;SDS011;55128;50.230;18.944;2023-03-01T10:21:48;37.85;;;26.55;;
63534;SDS011;55128;50.230;18.944;2023-03-01T10:26:57;40.57;;;24.77;;
63534;SDS011;55128;50.230;18.944;2023-03-01T10:32:02;32.85;;;24.42;;
63534;SDS011;55128;50.230;18.944;2023-03-01T10:37:13;36.00;;;22.95;;
63534;SDS011;55128;50.230;18.944;2023-03-01T10:42:19;29.42;;;20.38;;
63534;SDS011;55128;50.230;18.944;2023-03-01T10:47:26;33.83;;;20.77;;
63534;SDS011;55128;50.230;18.944;2023-03-01T10:52:29;31.63;;;18.83;;
63534;SDS011;55128;50.230;18.944;2023-03-01T11:02:38;35.40;;;21.55;;
63534;SDS011;55128;50.230;18.944;2023-03-01T11:07:48;29.27;;;18.10;;
63534;SDS011;55128;50.230;18.944;2023-03-01T11:12:53;33.60;;;21.20;;
63534;SDS011;55128;50.230;18.944;2023-03-01T11:18:05;29.77;;;17.40;;
63534;SDS011;55128;50.230;18.944;2023-03-01T11:23:19;32.60;;;18.60;;
63534;SDS011;55128;50.230;18.944;2023-03-01T11:28:22;32.75;;;18.63;;
63534;SDS011;55128;50.230;18.944;2023-03-01T11:38:26;33.88;;;19.67;;
63534;SDS011;55128;50.230;18.944;2023-03-01T11:43:47;32.20;;;19.00;;
63534;SDS011;55128;50.230;18.944;2023-03-01T11:59:35;31.35;;;19.23;;
63534;SDS011;55128;50.230;18.944;2023-03-01T12:26:48;27.50;;;17.30;;
63534;SDS011;55128;50.230;18.944;2023-03-01T12:31:29;27.35;;;15.70;;
63534;SDS011;55128;50.230;18.944;2023-03-01T12:47:14;30.65;;;16.75;;
63534;SDS011;55128;50.230;18.944;2023-03-01T12:57:42;28.13;;;15.25;;
63534;SDS011;55128;50.230;18.944;2023-03-01T13:02:54;27.35;;;15.48;;
63534;SDS011;55128;50.230;18.944;2023-03-01T13:13:29;27.50;;;14.57;;
63534;SDS011;55128;50.230;18.944;2023-03-01T13:18:30;26.58;;;14.55;;
63534;SDS011;55128;50.230;18.944;2023-03-01T13:23:33;22.30;;;12.00;;
63534;SDS011;55128;50.230;18.944;2023-03-01T13:33:58;28.98;;;12.73;;
63534;SDS011;55128;50.230;18.944;2023-03-01T13:39:00;23.65;;;14.07;;
63534;SDS011;55128;50.230;18.944;2023-03-01T13:44:01;21.00;;;12.00;;
63534;SDS011;55128;50.230;18.944;2023-03-01T13:49:01;25.58;;;14.85;;
63534;SDS011;55128;50.230;18.944;2023-03-01T13:54:02;22.52;;;10.68;;
63534;SDS011;55128;50.230;18.944;2023-03-01T13:59:04;21.10;;;10.70;;
63534;SDS011;55128;50.230;18.944;2023-03-01T14:04:19;18.80;;;10.10;;
63534;SDS011;55128;50.230;18.944;2023-03-01T14:09:24;21.88;;;11.85;;
63534;SDS011;55128;50.230;18.944;2023-03-01T14:19:39;17.05;;;10.15;;
63534;SDS011;55128;50.230;18.944;2023-03-01T14:24:47;18.73;;;10.35;;
63534;SDS011;55128;50.230;18.944;2023-03-01T14:29:54;24.73;;;13.18;;
63534;SDS011;55128;50.230;18.944;2023-03-01T14:35:00;22.02;;;11.30;;
63534;SDS011;55128;50.230;18.944;2023-03-01T14:40:02;36.40;;;15.10;;
63534;SDS011;55128;50.230;18.944;2023-03-01T14:45:13;20.42;;;12.25;;
63534;SDS011;55128;50.230;18.944;2023-03-01T14:50:20;22.52;;;12.48;;
63534;SDS011;55128;50.230;18.944;2023-03-01T15:00:32;19.35;;;11.90;;
63534;SDS011;55128;50.230;18.944;2023-03-01T15:05:33;24.65;;;13.35;;
63534;SDS011;55128;50.230;18.944;2023-03-01T15:10:35;22.42;;;12.27;;
63534;SDS011;55128;50.230;18.944;2023-03-01T15:20:46;22.13;;;11.95;;
63534;SDS011;55128;50.230;18.944;2023-03-01T15:25:48;22.58;;;12.77;;
63534;SDS011;55128;50.230;18.944;2023-03-01T15:31:02;19.67;;;11.95;;
63534;SDS011;55128;50.230;18.944;2023-03-01T15:36:30;30.77;;;13.90;;
63534;SDS011;55128;50.230;18.944;2023-03-01T15:41:32;35.05;;;16.85;;
63534;SDS011;55128;50.230;18.944;2023-03-01T15:46:38;24.00;;;12.75;;
63534;SDS011;55128;50.230;18.944;2023-03-01T15:51:44;19.30;;;11.73;;
63534;SDS011;55128;50.230;18.944;2023-03-01T15:56:45;35.40;;;16.65;;
63534;SDS011;55128;50.230;18.944;2023-03-01T16:01:46;26.48;;;13.50;;
63534;SDS011;55128;50.230;18.944;2023-03-01T16:06:51;23.88;;;12.57;;
63534;SDS011;55128;50.230;18.944;2023-03-01T16:11:56;20.58;;;11.50;;
63534;SDS011;55128;50.230;18.944;2023-03-01T16:16:56;27.52;;;13.18;;
63534;SDS011;55128;50.230;18.944;2023-03-01T16:21:57;23.23;;;11.40;;
63534;SDS011;55128;50.230;18.944;2023-03-01T16:26:59;26.48;;;13.35;;
63534;SDS011;55128;50.230;18.944;2023-03-01T16:32:00;25.00;;;13.52;;
63534;SDS011;55128;50.230;18.944;2023-03-01T16:37:01;25.67;;;13.00;;
63534;SDS011;55128;50.230;18.944;2023-03-01T16:42:01;25.95;;;12.82;;
63534;SDS011;55128;50.230;18.944;2023-03-01T16:47:02;22.73;;;11.52;;
63534;SDS011;55128;50.230;18.944;2023-03-01T16:52:02;28.50;;;12.80;;
63534;SDS011;55128;50.230;18.944;2023-03-01T16:57:02;41.00;;;17.70;;
63534;SDS011;55128;50.230;18.944;2023-03-01T17:02:03;39.95;;;19.40;;
63534;SDS011;55128;50.230;18.944;2023-03-01T17:07:06;32.28;;;16.65;;
63534;SDS011;55128;50.230;18.944;2023-03-01T17:12:07;47.53;;;23.25;;
63534;SDS011;55128;50.230;18.944;2023-03-01T17:17:12;46.70;;;24.30;;
63534;SDS011;55128;50.230;18.944;2023-03-01T17:22:12;51.30;;;26.95;;
63534;SDS011;55128;50.230;18.944;2023-03-01T17:27:13;57.42;;;29.65;;
63534;SDS011;55128;50.230;18.944;2023-03-01T17:32:14;56.20;;;31.00;;
63534;SDS011;55128;50.230;18.944;2023-03-01T17:37:15;44.38;;;20.40;;
63534;SDS011;55128;50.230;18.944;2023-03-01T17:42:15;28.35;;;14.57;;
63534;SDS011;55128;50.230;18.944;2023-03-01T17:47:16;217.25;;;58.13;;
63534;SDS011;55128;50.230;18.944;2023-03-01T17:52:16;189.15;;;76.68;;
63534;SDS011;55128;50.230;18.944;2023-03-01T17:57:16;65.40;;;29.63;;
63534;SDS011;55128;50.230;18.944;2023-03-01T18:02:17;27.80;;;15.40;;
63534;SDS011;55128;50.230;18.944;2023-03-01T18:07:18;29.50;;;15.68;;
63534;SDS011;55128;50.230;18.944;2023-03-01T18:12:19;30.58;;;15.52;;
63534;SDS011;55128;50.230;18.944;2023-03-01T18:17:19;29.02;;;16.48;;
63534;SDS011;55128;50.230;18.944;2023-03-01T18:22:21;32.13;;;15.02;;
63534;SDS011;55128;50.230;18.944;2023-03-01T18:27:21;35.67;;;18.45;;
63534;SDS011;55128;50.230;18.944;2023-03-01T18:32:22;32.13;;;16.02;;
63534;SDS011;55128;50.230;18.944;2023-03-01T18:37:23;31.90;;;18.35;;
63534;SDS011;55128;50.230;18.944;2023-03-01T18:42:23;39.25;;;18.92;;
63534;SDS011;55128;50.230;18.944;2023-03-01T18:47:24;40.80;;;21.65;;
63534;SDS011;55128;50.230;18.944;2023-03-01T18:52:24;41.47;;;21.27;;
63534;SDS011;55128;50.230;18.944;2023-03-01T18:57:24;52.35;;;23.98;;
63534;SDS011;55128;50.230;18.944;2023-03-01T19:02:25;38.63;;;20.53;;
63534;SDS011;55128;50.230;18.944;2023-03-01T19:07:25;40.80;;;21.57;;
63534;SDS011;55128;50.230;18.944;2023-03-01T19:12:25;57.63;;;26.90;;
63534;SDS011;55128;50.230;18.944;2023-03-01T19:17:27;91.38;;;32.22;;
63534;SDS011;55128;50.230;18.944;2023-03-01T19:22:29;87.30;;;34.92;;
63534;SDS011;55128;50.230;18.944;2023-03-01T19:27:30;82.18;;;32.65;;
63534;SDS011;55128;50.230;18.944;2023-03-01T19:32:31;96.30;;;38.63;;
63534;SDS011;55128;50.230;18.944;2023-03-01T19:37:33;88.63;;;38.30;;
63534;SDS011;55128;50.230;18.944;2023-03-01T19:42:34;80.88;;;35.60;;
63534;SDS011;55128;50.230;18.944;2023-03-01T19:47:34;76.18;;;34.58;;
63534;SDS011;55128;50.230;18.944;2023-03-01T19:52:35;74.85;;;34.35;;
63534;SDS011;55128;50.230;18.944;2023-03-01T19:57:35;103.80;;;43.23;;
63534;SDS011;55128;50.230;18.944;2023-03-01T20:02:35;63.78;;;28.50;;
63534;SDS011;55128;50.230;18.944;2023-03-01T20:07:36;119.93;;;48.40;;
63534;SDS011;55128;50.230;18.944;2023-03-01T20:12:36;102.72;;;44.15;;
63534;SDS011;55128;50.230;18.944;2023-03-01T20:17:37;140.15;;;61.03;;
63534;SDS011;55128;50.230;18.944;2023-03-01T20:22:37;82.73;;;38.20;;
63534;SDS011;55128;50.230;18.944;2023-03-01T20:27:37;78.75;;;37.28;;
63534;SDS011;55128;50.230;18.944;2023-03-01T20:32:38;50.95;;;23.30;;
63534;SDS011;55128;50.230;18.944;2023-03-01T20:37:38;80.00;;;35.53;;
63534;SDS011;55128;50.230;18.944;2023-03-01T20:42:38;77.88;;;37.78;;
63534;SDS011;55128;50.230;18.944;2023-03-01T20:47:39;79.93;;;44.58;;
63534;SDS011;55128;50.230;18.944;2023-03-01T20:52:39;69.72;;;34.80;;
63534;SDS011;55128;50.230;18.944;2023-03-01T20:57:43;72.15;;;37.55;;
63534;SDS011;55128;50.230;18.944;2023-03-01T21:02:46;85.22;;;39.08;;
63534;SDS011;55128;50.230;18.944;2023-03-01T21:07:53;74.68;;;35.58;;
63534;SDS011;55128;50.230;18.944;2023-03-01T21:12:53;85.10;;;39.45;;
63534;SDS011;55128;50.230;18.944;2023-03-01T21:17:55;68.47;;;33.85;;
63534;SDS011;55128;50.230;18.944;2023-03-01T21:23:09;91.10;;;42.33;;
63534;SDS011;55128;50.230;18.944;2023-03-01T21:28:12;102.20;;;48.15;;
63534;SDS011;55128;50.230;18.944;2023-03-01T21:33:14;109.93;;;48.42;;
63534;SDS011;55128;50.230;18.944;2023-03-01T21:38:14;53.07;;;25.20;;
63534;SDS011;55128;50.230;18.944;2023-03-01T21:43:14;50.80;;;24.00;;
63534;SDS011;55128;50.230;18.944;2023-03-01T21:48:15;73.43;;;30.27;;
63534;SDS011;55128;50.230;18.944;2023-03-01T21:53:16;96.30;;;41.28;;
63534;SDS011;55128;50.230;18.944;2023-03-01T21:58:17;84.63;;;42.38;;
63534;SDS011;55128;50.230;18.944;2023-03-01T22:03:18;97.35;;;45.65;;
63534;SDS011;55128;50.230;18.944;2023-03-01T22:08:19;87.03;;;42.95;;
63534;SDS011;55128;50.230;18.944;2023-03-01T22:13:20;69.43;;;33.72;;
63534;SDS011;55128;50.230;18.944;2023-03-01T22:18:21;123.80;;;50.67;;
63534;SDS011;55128;50.230;18.944;2023-03-01T22:23:22;102.85;;;45.85;;
63534;SDS011;55128;50.230;18.944;2023-03-01T22:28:24;96.10;;;42.83;;
63534;SDS011;55128;50.230;18.944;2023-03-01T22:33:24;96.78;;;46.13;;
63534;SDS011;55128;50.230;18.944;2023-03-01T22:38:25;99.93;;;48.50;;
63534;SDS011;55128;50.230;18.944;2023-03-01T22:43:25;89.05;;;40.47;;
63534;SDS011;55128;50.230;18.944;2023-03-01T22:48:27;84.38;;;38.72;;
63534;SDS011;55128;50.230;18.944;2023-03-01T22:53:27;142.52;;;61.17;;
63534;SDS011;55128;50.230;18.944;2023-03-01T22:58:27;116.03;;;53.47;;
63534;SDS011;55128;50.230;18.944;2023-03-01T23:03:28;117.78;;;52.97;;
63534;SDS011;55128;50.230;18.944;2023-03-01T23:08:29;115.22;;;55.58;;
63534;SDS011;55128;50.230;18.944;2023-03-01T23:13:30;121.40;;;56.42;;
63534;SDS011;55128;50.230;18.944;2023-03-01T23:18:32;109.47;;;48.40;;
63534;SDS011;55128;50.230;18.944;2023-03-01T23:23:32;81.55;;;40.65;;
63534;SDS011;55128;50.230;18.944;2023-03-01T23:28:33;84.53;;;39.15;;
63534;SDS011;55128;50.230;18.944;2023-03-01T23:33:35;109.55;;;48.55;;
63534;SDS011;55128;50.230;18.944;2023-03-01T23:38:39;102.68;;;48.55;;
63534;SDS011;55128;50.230;18.944;2023-03-01T23:43:42;99.63;;;49.50;;
63534;SDS011;55128;50.230;18.944;2023-03-01T23:48:43;110.80;;;49.17;;
63534;SDS011;55128;50.230;18.944;2023-03-01T23:53:46;102.10;;;51.40;;
63534;SDS011;55128;50.230;18.944;2023-03-01T23:58:56;119.68;;;56.78;;
